createdAt,value
2023-11-18T00:01:24.704Z,32.23
2023-11-18T00:03:27.730Z,37.20
2023-11-18T00:05:30.665Z,36.80
2023-11-18T00:07:34.005Z,47.20
2023-11-18T00:09:37.840Z,36.13
2023-11-18T00:11:40.756Z,32.37
2023-11-18T00:13:43.907Z,35.90
2023-11-18T00:15:48.242Z,38.37
2023-11-18T00:17:50.170Z,35.70
2023-11-18T00:19:54.842Z,35.73
2023-11-18T00:21:57.877Z,30.10
2023-11-18T00:24:00.757Z,35.10
2023-11-18T00:26:04.329Z,32.07
2023-11-18T00:28:08.140Z,29.70
2023-11-18T00:30:12.202Z,22.07
2023-11-18T00:32:15.700Z,24.07
2023-11-18T00:34:18.844Z,26.60
2023-11-18T00:36:21.754Z,26.13
2023-11-18T00:38:24.644Z,39.53
2023-11-18T00:40:30.825Z,26.03
2023-11-18T00:42:34.300Z,25.13
2023-11-18T00:44:37.192Z,34.63
2023-11-18T00:46:39.217Z,24.73
2023-11-18T00:48:43.501Z,27.57
2023-11-18T00:50:46.824Z,37.20
2023-11-18T00:52:50.943Z,24.90
2023-11-18T00:54:53.957Z,33.70
2023-11-18T00:56:56.827Z,26.40
2023-11-18T00:58:59.755Z,35.67
2023-11-18T01:01:02.651Z,38.10
2023-11-18T01:03:05.659Z,37.20
2023-11-18T01:05:12.123Z,33.37
2023-11-18T01:07:15.092Z,29.10
2023-11-18T01:09:18.013Z,33.33
2023-11-18T01:11:21.105Z,32.70
2023-11-18T01:13:24.097Z,36.73
2023-11-18T01:15:26.976Z,32.53
2023-11-18T01:17:30.292Z,26.00
2023-11-18T01:19:33.372Z,33.10
2023-11-18T01:21:38.577Z,35.43
2023-11-18T01:23:46.144Z,30.43
2023-11-18T01:25:52.210Z,32.03
2023-11-18T01:27:55.191Z,28.80
2023-11-18T01:29:58.398Z,22.80
2023-11-18T01:32:01.401Z,28.33
2023-11-18T01:34:05.484Z,20.80
2023-11-18T01:36:10.631Z,25.43
2023-11-18T01:38:14.926Z,23.30
2023-11-18T01:40:18.522Z,30.13
2023-11-18T01:42:20.498Z,27.67
2023-11-18T01:44:25.121Z,30.37
2023-11-18T01:46:31.007Z,29.80
2023-11-18T01:48:34.697Z,31.63
2023-11-18T01:50:38.411Z,28.83
2023-11-18T01:52:40.425Z,26.50
2023-11-18T01:54:45.859Z,29.00
2023-11-18T01:56:49.305Z,29.80
2023-11-18T01:58:52.231Z,33.13
2023-11-18T02:00:55.110Z,26.63
2023-11-18T02:02:58.154Z,27.50
2023-11-18T02:05:02.227Z,33.50
2023-11-18T02:07:10.093Z,37.80
2023-11-18T02:09:13.900Z,30.40
2023-11-18T02:11:22.520Z,29.43
2023-11-18T02:13:28.966Z,40.33
2023-11-18T02:15:33.053Z,33.73
2023-11-18T02:17:36.048Z,32.07
2023-11-18T02:19:38.631Z,32.43
2023-11-18T02:21:41.620Z,36.23
2023-11-18T02:23:44.530Z,33.80
2023-11-18T02:25:49.086Z,41.70
2023-11-18T02:27:52.037Z,38.17
2023-11-18T02:29:54.018Z,39.47
2023-11-18T02:32:02.581Z,39.67
2023-11-18T02:34:08.478Z,40.13
2023-11-18T02:36:14.280Z,38.83
2023-11-18T02:38:17.869Z,42.17
2023-11-18T02:40:21.888Z,45.30
2023-11-18T02:42:26.168Z,40.00
2023-11-18T02:44:29.057Z,34.83
2023-11-18T02:46:32.018Z,48.30
2023-11-18T02:48:34.978Z,38.90
2023-11-18T02:50:37.936Z,36.50
2023-11-18T02:52:39.884Z,41.60
2023-11-18T02:54:42.863Z,36.43
2023-11-18T02:56:45.725Z,36.10
2023-11-18T02:58:50.070Z,45.73
2023-11-18T03:00:53.010Z,38.23
2023-11-18T03:02:55.463Z,36.47
2023-11-18T03:04:58.460Z,46.00
2023-11-18T03:07:01.921Z,35.43
2023-11-18T03:09:08.212Z,39.27
2023-11-18T03:11:11.173Z,39.13
2023-11-18T03:13:14.214Z,36.00
2023-11-18T03:15:19.764Z,38.60
2023-11-18T03:17:22.761Z,39.40
2023-11-18T03:19:25.745Z,41.90
2023-11-18T03:21:28.619Z,41.57
2023-11-18T03:23:31.508Z,36.67
2023-11-18T03:25:34.428Z,41.73
2023-11-18T03:27:37.446Z,43.23
2023-11-18T03:29:40.904Z,47.53
2023-11-18T03:31:49.460Z,38.23
2023-11-18T03:33:53.030Z,42.73
2023-11-18T03:35:56.274Z,38.77
2023-11-18T03:37:59.253Z,39.33
2023-11-18T03:40:02.159Z,41.20
2023-11-18T03:42:05.282Z,40.30
2023-11-18T03:44:08.190Z,40.80
2023-11-18T03:46:11.937Z,40.57
2023-11-18T03:48:16.316Z,41.00
2023-11-18T03:50:19.341Z,43.63
2023-11-18T03:52:22.238Z,39.07
2023-11-18T03:54:25.685Z,40.73
2023-11-18T03:56:28.084Z,38.47
2023-11-18T03:58:31.055Z,37.53
2023-11-18T04:00:34.019Z,44.27
2023-11-18T04:02:37.169Z,42.20
2023-11-18T04:04:41.626Z,41.03
2023-11-18T04:06:44.573Z,48.77
2023-11-18T04:08:47.777Z,39.07
2023-11-18T04:10:49.726Z,42.43
2023-11-18T04:12:52.615Z,44.73
2023-11-18T04:14:55.512Z,46.50
2023-11-18T04:16:58.887Z,43.90
2023-11-18T04:19:01.832Z,39.23
2023-11-18T04:21:06.893Z,40.17
2023-11-18T04:23:10.113Z,46.30
2023-11-18T04:25:13.701Z,46.07
2023-11-18T04:27:16.577Z,55.60
2023-11-18T04:29:19.693Z,46.30
2023-11-18T04:31:23.313Z,45.70
2023-11-18T04:33:26.551Z,44.87
2023-11-18T04:35:29.429Z,42.40
2023-11-18T04:37:33.692Z,44.77
2023-11-18T04:39:38.130Z,49.00
2023-11-18T04:41:41.001Z,48.63
2023-11-18T04:43:46.052Z,60.67
2023-11-18T04:45:49.298Z,51.27
2023-11-18T04:47:53.017Z,56.93
2023-11-18T04:49:56.050Z,55.10
2023-11-18T04:52:00.089Z,49.43
2023-11-18T04:54:04.542Z,50.37
2023-11-18T04:56:10.861Z,60.67
2023-11-18T04:58:13.789Z,48.67
2023-11-18T05:00:18.663Z,61.63
2023-11-18T05:02:21.663Z,57.93
2023-11-18T05:04:24.624Z,50.60
2023-11-18T05:06:27.497Z,54.10
2023-11-18T05:08:30.479Z,50.37
2023-11-18T05:10:34.826Z,57.20
2023-11-18T05:12:37.975Z,50.10
2023-11-18T05:14:40.873Z,70.03
2023-11-18T05:16:43.841Z,53.83
2023-11-18T05:18:46.903Z,61.60
2023-11-18T05:20:50.235Z,53.00
2023-11-18T05:22:53.207Z,57.60
2023-11-18T05:24:55.144Z,52.67
2023-11-18T05:27:02.862Z,48.50
2023-11-18T05:29:07.026Z,49.90
2023-11-18T05:31:10.015Z,57.80
2023-11-18T05:33:18.231Z,49.10
2023-11-18T05:35:24.783Z,44.43
2023-11-18T05:37:29.129Z,62.63
2023-11-18T05:39:32.419Z,53.97
2023-11-18T05:41:36.316Z,57.70
2023-11-18T05:43:41.947Z,50.60
2023-11-18T05:46:05.445Z,47.40
2023-11-18T05:48:09.027Z,56.27
2023-11-18T05:50:11.099Z,48.63
2023-11-18T05:52:13.994Z,46.20
2023-11-18T05:54:16.877Z,44.50
2023-11-18T05:56:19.166Z,38.70
2023-11-18T05:58:22.115Z,46.57
2023-11-18T06:00:33.193Z,46.97
2023-11-18T06:02:40.716Z,48.10
2023-11-18T06:04:43.741Z,44.77
2023-11-18T06:06:48.196Z,47.33
2023-11-18T06:08:51.264Z,51.20
2023-11-18T06:10:57.662Z,46.47
2023-11-18T06:13:00.639Z,49.17
2023-11-18T06:15:03.519Z,49.53
2023-11-18T06:17:08.679Z,46.40
2023-11-18T06:19:11.179Z,59.47
2023-11-18T06:21:15.535Z,58.57
2023-11-18T06:23:20.288Z,111.33
2023-11-18T06:25:23.978Z,113.63
2023-11-18T06:27:26.912Z,97.07
2023-11-18T06:29:30.615Z,102.23
2023-11-18T06:31:33.035Z,91.10
2023-11-18T06:33:43.905Z,99.67
2023-11-18T06:35:47.159Z,84.33
2023-11-18T06:37:50.080Z,92.17
2023-11-18T06:39:53.752Z,92.63
2023-11-18T06:42:00.236Z,90.03
2023-11-18T06:44:04.188Z,99.60
2023-11-18T06:46:07.211Z,84.83
2023-11-18T06:48:09.380Z,66.07
2023-11-18T06:50:15.429Z,59.63
2023-11-18T06:52:20.131Z,66.40
2023-11-18T06:54:25.383Z,75.47
2023-11-18T06:56:28.531Z,67.23
2023-11-18T06:58:30.433Z,65.23
2023-11-18T07:00:33.795Z,74.37
2023-11-18T07:02:36.941Z,81.33
2023-11-18T07:04:39.734Z,84.87
2023-11-18T07:06:44.328Z,53.30
2023-11-18T07:08:46.508Z,78.80
2023-11-18T07:10:49.667Z,52.90
2023-11-18T07:12:51.602Z,56.77
2023-11-18T07:14:55.198Z,51.00
2023-11-18T07:16:58.222Z,49.97
2023-11-18T07:19:01.173Z,63.10
2023-11-18T07:21:05.759Z,61.07
2023-11-18T07:23:10.177Z,70.47
2023-11-18T07:25:12.072Z,76.33
2023-11-18T07:27:15.025Z,63.47
2023-11-18T07:29:18.006Z,59.70
2023-11-18T07:31:21.089Z,59.13
2023-11-18T07:33:24.360Z,66.27
2023-11-18T07:35:28.133Z,257.50
2023-11-18T07:37:33.849Z,64.30
2023-11-18T07:39:45.669Z,74.80
2023-11-18T07:41:48.073Z,60.93
2023-11-18T07:43:51.121Z,60.20
2023-11-18T07:45:54.508Z,69.20
2023-11-18T07:47:57.574Z,72.23
2023-11-18T07:50:00.332Z,66.20
2023-11-18T07:52:03.605Z,70.27
2023-11-18T07:54:06.629Z,64.90
2023-11-18T07:56:12.075Z,64.40
2023-11-18T07:58:15.218Z,77.43
2023-11-18T08:00:18.837Z,65.50
2023-11-18T08:02:21.122Z,70.67
2023-11-18T08:04:24.113Z,74.57
2023-11-18T08:06:27.675Z,73.23
2023-11-18T08:08:30.776Z,66.17
2023-11-18T08:10:34.046Z,77.40
2023-11-18T08:12:38.258Z,66.77
2023-11-18T08:14:41.157Z,75.70
2023-11-18T08:16:44.206Z,70.40
2023-11-18T08:18:47.201Z,94.93
2023-11-18T08:20:50.073Z,71.07
2023-11-18T08:22:53.019Z,80.07
2023-11-18T08:24:55.940Z,77.73
2023-11-18T08:26:58.801Z,75.73
2023-11-18T08:29:03.202Z,79.67
2023-11-18T08:31:07.597Z,84.40
2023-11-18T08:33:10.920Z,76.73
2023-11-18T08:35:14.897Z,84.60
2023-11-18T08:37:18.070Z,84.90
2023-11-18T08:39:21.591Z,84.63
2023-11-18T08:41:24.987Z,77.07
2023-11-18T08:43:29.825Z,87.27
2023-11-18T08:45:35.757Z,88.17
2023-11-18T08:47:39.921Z,97.93
2023-11-18T08:49:47.363Z,104.00
2023-11-18T08:51:50.382Z,95.65
2023-11-18T08:53:55.899Z,100.33
2023-11-18T08:55:57.923Z,96.27
2023-11-18T08:58:00.839Z,98.20
2023-11-18T09:00:09.850Z,94.77
2023-11-18T09:02:16.279Z,100.37
2023-11-18T09:04:21.246Z,98.20
2023-11-18T09:06:29.370Z,87.63
2023-11-18T09:08:36.029Z,100.67
2023-11-18T09:10:39.345Z,92.73
2023-11-18T09:12:46.337Z,91.20
2023-11-18T09:14:53.044Z,101.60
2023-11-18T09:16:57.482Z,96.90
2023-11-18T09:19:04.045Z,92.73
2023-11-18T09:21:07.676Z,90.23
2023-11-18T09:23:10.305Z,78.00
2023-11-18T09:25:13.502Z,81.57
2023-11-18T09:27:16.406Z,88.73
2023-11-18T09:29:25.357Z,80.80
2023-11-18T09:31:28.561Z,83.50
2023-11-18T09:33:34.013Z,92.77
2023-11-18T09:35:38.421Z,67.20
2023-11-18T09:37:41.817Z,86.67
2023-11-18T09:39:46.817Z,80.83
2023-11-18T09:41:50.537Z,65.77
2023-11-18T09:43:55.826Z,68.20
2023-11-18T09:45:58.315Z,69.37
2023-11-18T09:48:03.003Z,68.43
2023-11-18T09:50:07.017Z,76.17
2023-11-18T09:52:14.444Z,70.93
2023-11-18T09:54:25.001Z,70.90
2023-11-18T09:56:39.394Z,62.10
2023-11-18T09:58:45.328Z,56.93
2023-11-18T10:00:48.992Z,55.13
2023-11-18T10:02:53.075Z,59.97
2023-11-18T10:04:59.538Z,53.83
2023-11-18T10:07:03.781Z,50.57
2023-11-18T10:09:16.665Z,60.63
2023-11-18T10:11:22.751Z,57.67
2023-11-18T10:13:25.785Z,45.37
2023-11-18T10:15:28.702Z,46.77
2023-11-18T10:17:33.135Z,48.10
2023-11-18T10:20:01.362Z,44.63
2023-11-18T10:22:05.532Z,41.10
2023-11-18T10:24:15.546Z,57.27
2023-11-18T10:26:18.534Z,43.80
2023-11-18T10:28:25.678Z,41.77
2023-11-18T10:30:28.575Z,43.53
2023-11-18T10:32:36.183Z,40.67
2023-11-18T10:34:39.681Z,44.70
2023-11-18T10:36:42.534Z,43.77
2023-11-18T10:38:51.095Z,38.03
2023-11-18T10:40:59.401Z,44.87
2023-11-18T10:43:02.504Z,38.83
2023-11-18T10:45:06.072Z,39.80
2023-11-18T10:47:12.759Z,38.03
2023-11-18T10:49:15.989Z,37.50
2023-11-18T10:51:20.272Z,34.17
2023-11-18T10:53:24.084Z,38.83
2023-11-18T10:55:34.425Z,38.40
2023-11-18T10:57:39.996Z,35.83
2023-11-18T11:00:00.576Z,36.47
2023-11-18T11:02:03.587Z,36.80
2023-11-18T11:04:06.673Z,32.40
2023-11-18T11:06:19.259Z,43.63
2023-11-18T11:08:29.344Z,32.00
2023-11-18T11:10:42.804Z,36.33
2023-11-18T11:12:53.352Z,35.00
2023-11-18T11:15:00.804Z,31.63
2023-11-18T11:17:12.605Z,33.57
2023-11-18T11:19:23.483Z,35.30
2023-11-18T11:21:29.484Z,29.37
2023-11-18T11:23:40.380Z,35.77
2023-11-18T11:25:46.301Z,29.70
2023-11-18T11:28:00.985Z,31.43
2023-11-18T11:30:11.431Z,36.03
2023-11-18T11:32:19.908Z,28.40
2023-11-18T11:34:24.878Z,30.77
2023-11-18T11:36:32.556Z,28.60
2023-11-18T11:38:36.519Z,30.37
2023-11-18T11:40:39.690Z,31.30
2023-11-18T11:42:41.771Z,31.60
2023-11-18T11:44:46.216Z,30.27
2023-11-18T11:46:54.192Z,30.83
2023-11-18T11:48:57.238Z,22.30
2023-11-18T11:51:16.019Z,27.37
2023-11-18T11:53:23.826Z,25.60
2023-11-18T11:55:31.773Z,25.10
2023-11-18T11:57:37.902Z,26.03
2023-11-18T11:59:59.169Z,25.90
2023-11-18T12:02:02.604Z,22.27
2023-11-18T12:04:08.231Z,21.90
2023-11-18T12:06:17.227Z,23.87
2023-11-18T12:08:20.253Z,19.97
2023-11-18T12:10:23.243Z,23.33
2023-11-18T12:12:27.773Z,21.53
2023-11-18T12:14:42.237Z,21.47
2023-11-18T12:17:10.563Z,29.83
2023-11-18T12:19:32.277Z,17.70
2023-11-18T12:21:56.710Z,29.47
2023-11-18T12:24:20.349Z,20.83
2023-11-18T12:26:41.169Z,19.00
2023-11-18T12:28:46.873Z,21.97
2023-11-18T12:30:57.277Z,21.87
2023-11-18T12:33:02.575Z,21.07
2023-11-18T12:35:11.615Z,14.27
2023-11-18T12:37:28.150Z,17.30
2023-11-18T12:40:25.518Z,17.87
2023-11-18T12:42:59.393Z,16.73
2023-11-18T12:45:15.486Z,17.63
2023-11-18T12:47:22.109Z,17.60
2023-11-18T12:49:26.942Z,15.10
2023-11-18T12:51:32.209Z,18.80
2023-11-18T12:53:36.659Z,18.03
2023-11-18T12:55:39.587Z,18.13
2023-11-18T12:57:48.760Z,17.20
2023-11-18T12:59:52.011Z,16.00
2023-11-18T13:01:58.043Z,14.07
2023-11-18T13:04:02.709Z,19.90
2023-11-18T13:06:08.098Z,17.90
2023-11-18T13:08:11.098Z,18.53
2023-11-18T13:10:16.583Z,18.10
2023-11-18T13:12:21.357Z,19.77
2023-11-18T13:14:27.248Z,21.90
2023-11-18T13:16:30.814Z,19.13
2023-11-18T13:18:44.395Z,18.70
2023-11-18T13:20:58.504Z,16.43
2023-11-18T13:23:09.517Z,26.10
2023-11-18T13:25:15.409Z,17.00
2023-11-18T13:27:18.775Z,15.13
2023-11-18T13:29:22.717Z,22.03
2023-11-18T13:31:25.644Z,22.37
2023-11-18T13:33:28.547Z,15.50
2023-11-18T13:35:31.545Z,20.97
2023-11-18T13:37:34.431Z,18.10
2023-11-18T13:39:39.754Z,16.90
2023-11-18T13:41:42.270Z,18.50
2023-11-18T13:43:45.501Z,20.93
2023-11-18T13:45:53.509Z,16.47
2023-11-18T13:47:59.049Z,22.50
2023-11-18T13:50:02.007Z,17.57
2023-11-18T13:52:05.167Z,16.97
2023-11-18T13:54:08.290Z,14.37
2023-11-18T13:56:11.562Z,15.30
2023-11-18T13:58:14.484Z,22.33
2023-11-18T14:00:18.210Z,19.77
2023-11-18T14:02:21.262Z,21.90
2023-11-18T14:04:24.764Z,17.53
2023-11-18T14:06:28.650Z,17.10
2023-11-18T14:08:31.668Z,20.77
2023-11-18T14:10:34.873Z,26.10
2023-11-18T14:12:39.133Z,22.93
2023-11-18T14:14:42.830Z,17.43
2023-11-18T14:16:46.629Z,19.47
2023-11-18T14:18:49.596Z,23.17
2023-11-18T14:20:52.546Z,18.00
2023-11-18T14:22:55.975Z,20.17
2023-11-18T14:24:59.073Z,15.70
2023-11-18T14:27:01.962Z,13.77
2023-11-18T14:29:07.259Z,16.80
2023-11-18T14:31:10.986Z,22.57
2023-11-18T14:33:13.906Z,16.87
2023-11-18T14:35:18.546Z,18.17
2023-11-18T14:37:21.639Z,25.53
2023-11-18T14:39:24.577Z,21.33
2023-11-18T14:41:29.898Z,13.80
2023-11-18T14:43:32.925Z,20.47
2023-11-18T14:45:38.552Z,23.03
2023-11-18T14:47:40.581Z,20.90
2023-11-18T14:49:44.152Z,15.50
2023-11-18T14:51:47.443Z,17.17
2023-11-18T14:53:50.306Z,15.60
2023-11-18T14:55:53.246Z,16.07
2023-11-18T14:57:56.248Z,14.07
2023-11-18T14:59:59.813Z,13.80
2023-11-18T15:02:04.481Z,13.40
2023-11-18T15:04:07.901Z,12.63
2023-11-18T15:06:12.739Z,18.00
2023-11-18T15:08:16.994Z,12.17
2023-11-18T15:10:22.901Z,12.60
2023-11-18T15:12:25.758Z,13.23
2023-11-18T15:14:29.728Z,13.40
2023-11-18T15:16:32.702Z,15.90
2023-11-18T15:18:37.024Z,18.53
2023-11-18T15:20:39.918Z,12.10
2023-11-18T15:22:45.372Z,12.50
2023-11-18T15:24:48.655Z,15.25
2023-11-18T15:26:52.545Z,16.43
2023-11-18T15:28:55.958Z,14.30
2023-11-18T15:30:58.950Z,16.30
2023-11-18T15:33:02.646Z,14.50
2023-11-18T15:35:09.708Z,15.93
2023-11-18T15:37:12.707Z,16.40
2023-11-18T15:39:16.031Z,12.23
2023-11-18T15:41:19.077Z,15.60
2023-11-18T15:43:22.884Z,14.40
2023-11-18T15:45:27.537Z,10.60
2023-11-18T15:47:29.776Z,17.47
2023-11-18T15:49:32.688Z,16.57
2023-11-18T15:51:36.875Z,16.33
2023-11-18T15:53:39.739Z,12.97
2023-11-18T15:55:43.652Z,15.13
2023-11-18T15:57:48.493Z,15.30
2023-11-18T15:59:51.651Z,14.47
2023-11-18T16:01:54.552Z,15.70
2023-11-18T16:03:58.054Z,14.37
2023-11-18T16:06:00.960Z,14.37
2023-11-18T16:08:08.278Z,13.83
2023-11-18T16:10:10.817Z,15.00
2023-11-18T16:12:13.698Z,14.50
2023-11-18T16:14:17.267Z,10.83
2023-11-18T16:16:20.217Z,16.73
2023-11-18T16:18:24.038Z,9.70
2023-11-18T16:20:28.021Z,13.50
2023-11-18T16:22:30.924Z,9.80
2023-11-18T16:24:35.182Z,11.63
2023-11-18T16:26:38.061Z,19.30
2023-11-18T16:28:40.975Z,12.77
2023-11-18T16:30:43.861Z,11.83
2023-11-18T16:32:50.225Z,12.87
2023-11-18T16:34:53.756Z,10.20
2023-11-18T16:36:57.752Z,12.70
2023-11-18T16:39:01.007Z,10.90
2023-11-18T16:41:05.757Z,13.23
2023-11-18T16:43:08.707Z,13.10
2023-11-18T16:45:12.428Z,14.73
2023-11-18T16:47:14.464Z,11.17
2023-11-18T16:49:18.066Z,11.77
2023-11-18T16:51:21.893Z,10.93
2023-11-18T16:53:23.911Z,10.73
2023-11-18T16:55:27.236Z,14.80
2023-11-18T16:57:31.828Z,13.23
2023-11-18T16:59:33.779Z,15.80
2023-11-18T17:01:36.692Z,12.03
2023-11-18T17:03:39.708Z,12.73
2023-11-18T17:05:42.701Z,10.23
2023-11-18T17:07:45.612Z,9.43
2023-11-18T17:09:48.472Z,9.40
2023-11-18T17:11:51.422Z,11.93
2023-11-18T17:13:55.686Z,11.73
2023-11-18T17:15:57.670Z,8.53
2023-11-18T17:18:03.961Z,10.07
2023-11-18T17:20:10.564Z,9.70
2023-11-18T17:22:13.667Z,10.17
2023-11-18T17:24:17.716Z,13.37
2023-11-18T17:26:20.742Z,10.67
2023-11-18T17:28:23.685Z,9.40
2023-11-18T17:30:33.129Z,11.80
2023-11-18T17:32:36.067Z,9.90
2023-11-18T17:34:39.002Z,10.13
2023-11-18T17:36:42.089Z,11.60
2023-11-18T17:38:44.988Z,10.30
2023-11-18T17:40:47.333Z,9.10
2023-11-18T17:42:52.396Z,6.73
2023-11-18T17:44:56.834Z,8.30
2023-11-18T17:47:02.046Z,8.73
2023-11-18T17:49:05.886Z,7.73
2023-11-18T17:51:08.795Z,8.30
2023-11-18T17:53:12.309Z,10.63
2023-11-18T17:55:15.956Z,11.63
2023-11-18T17:57:18.923Z,11.47
2023-11-18T17:59:21.906Z,11.23
2023-11-18T18:01:26.882Z,10.93
2023-11-18T18:03:31.898Z,11.50
2023-11-18T18:05:33.974Z,15.07
2023-11-18T18:07:37.176Z,13.50
2023-11-18T18:09:39.273Z,13.30
2023-11-18T18:11:42.171Z,15.30
2023-11-18T18:13:45.119Z,19.50
2023-11-18T18:15:48.483Z,13.33
2023-11-18T18:17:51.478Z,15.93
2023-11-18T18:19:55.743Z,17.27
2023-11-18T18:21:57.671Z,16.37
2023-11-18T18:24:00.545Z,17.13
2023-11-18T18:26:03.457Z,13.63
2023-11-18T18:28:05.445Z,20.23
2023-11-18T18:30:11.015Z,17.00
2023-11-18T18:32:13.946Z,14.00
2023-11-18T18:34:16.849Z,16.57
2023-11-18T18:36:21.935Z,17.03
2023-11-18T18:38:24.874Z,13.73
2023-11-18T18:40:29.768Z,17.00
2023-11-18T18:42:34.274Z,14.83
2023-11-18T18:44:37.231Z,14.20
2023-11-18T18:46:40.121Z,14.77
2023-11-18T18:48:42.994Z,15.67
2023-11-18T18:50:47.031Z,13.53
2023-11-18T18:52:51.706Z,12.27
2023-11-18T18:54:54.927Z,13.27
2023-11-18T18:56:57.801Z,13.17
2023-11-18T18:59:00.734Z,13.90
2023-11-18T19:01:03.663Z,12.00
2023-11-18T19:03:06.736Z,10.20
2023-11-18T19:05:10.494Z,11.03
2023-11-18T19:07:13.407Z,10.73
2023-11-18T19:09:18.704Z,11.80
2023-11-18T19:11:21.655Z,10.70
2023-11-18T19:13:24.603Z,10.13
2023-11-18T19:15:27.510Z,11.67
2023-11-18T19:17:30.580Z,9.70
2023-11-18T19:19:33.541Z,6.97
2023-11-18T19:21:36.445Z,8.53
2023-11-18T19:23:39.922Z,8.27
2023-11-18T19:25:43.173Z,9.87
2023-11-18T19:27:47.120Z,7.97
2023-11-18T19:29:50.227Z,5.53
2023-11-18T19:31:53.146Z,7.67
2023-11-18T19:33:56.055Z,7.20
2023-11-18T19:35:58.955Z,8.97
2023-11-18T19:38:03.910Z,9.63
2023-11-18T19:40:07.332Z,7.50
2023-11-18T19:42:11.771Z,9.03
2023-11-18T19:44:13.726Z,6.70
2023-11-18T19:46:17.298Z,7.90
2023-11-18T19:48:20.313Z,8.93
2023-11-18T19:52:29.129Z,6.80
2023-11-18T19:54:32.830Z,5.13
2023-11-18T19:56:35.794Z,6.43
2023-11-18T19:58:40.092Z,6.60
2023-11-18T20:00:45.159Z,7.13
2023-11-18T20:02:48.153Z,7.17
2023-11-18T20:04:51.108Z,8.37
2023-11-18T20:06:54.026Z,4.83
2023-11-18T20:08:56.902Z,5.30
2023-11-18T20:10:59.999Z,5.27
2023-11-18T20:13:02.910Z,5.60
2023-11-18T20:15:12.127Z,5.03
2023-11-18T20:17:15.028Z,5.20
2023-11-18T20:19:17.949Z,4.90
2023-11-18T20:21:19.838Z,4.00
2023-11-18T20:23:22.796Z,5.40
2023-11-18T20:25:26.214Z,6.93
2023-11-18T20:27:29.119Z,7.03
2023-11-18T20:29:32.042Z,7.80
2023-11-18T20:31:37.617Z,5.57
2023-11-18T20:33:42.957Z,6.00
2023-11-18T20:35:46.408Z,5.60
2023-11-18T20:37:49.504Z,11.70
2023-11-18T20:39:52.426Z,5.17
2023-11-18T20:41:55.393Z,4.90
2023-11-18T20:43:58.450Z,5.67
2023-11-18T20:46:01.323Z,4.27
2023-11-18T20:48:06.811Z,5.57
2023-11-18T20:50:12.625Z,4.53
2023-11-18T20:52:15.560Z,5.90
2023-11-18T20:54:18.456Z,3.80
2023-11-18T20:56:22.075Z,3.03
2023-11-18T20:58:25.002Z,5.10
2023-11-18T21:00:27.883Z,5.57
2023-11-18T21:02:29.889Z,5.27
2023-11-18T21:04:34.312Z,3.50
2023-11-18T21:06:37.473Z,3.87
2023-11-18T21:08:39.380Z,6.77
2023-11-18T21:10:42.265Z,3.50
2023-11-18T21:12:45.132Z,3.93
2023-11-18T21:14:50.083Z,5.30
2023-11-18T21:16:52.978Z,8.30
2023-11-18T21:18:59.044Z,4.30
2023-11-18T21:21:03.702Z,3.20
2023-11-18T21:23:06.682Z,2.67
2023-11-18T21:25:09.440Z,4.83
2023-11-18T21:27:12.311Z,3.03
2023-11-18T21:29:16.882Z,2.70
2023-11-18T21:31:19.810Z,2.43
2023-11-18T21:33:24.105Z,2.60
2023-11-18T21:35:27.087Z,2.93
2023-11-18T21:37:31.639Z,2.60
2023-11-18T21:39:35.027Z,3.90
2023-11-18T21:41:37.933Z,2.70
2023-11-18T21:43:40.871Z,2.30
2023-11-18T21:45:44.207Z,7.40
2023-11-18T21:47:46.709Z,3.15
2023-11-18T21:49:52.799Z,2.40
2023-11-18T21:51:56.290Z,2.43
2023-11-18T21:54:02.139Z,1.93
2023-11-18T21:56:06.479Z,1.60
2023-11-18T21:58:09.406Z,1.93
2023-11-18T22:00:13.924Z,2.30
2023-11-18T22:02:17.232Z,4.63
2023-11-18T22:04:20.192Z,3.10
2023-11-18T22:06:23.446Z,2.13
2023-11-18T22:08:26.391Z,1.60
2023-11-18T22:10:30.626Z,2.47
2023-11-18T22:12:33.537Z,2.23
2023-11-18T22:14:35.510Z,1.60
2023-11-18T22:16:38.454Z,2.20
2023-11-18T22:18:41.481Z,2.50
2023-11-18T22:20:45.553Z,1.90
2023-11-18T22:22:50.107Z,2.00
2023-11-18T22:24:53.799Z,2.63
2023-11-18T22:26:58.090Z,3.40
2023-11-18T22:29:01.038Z,2.03
2023-11-18T22:31:05.216Z,1.83
2023-11-18T22:33:09.578Z,2.70
2023-11-18T22:35:12.761Z,3.00
2023-11-18T22:37:15.723Z,1.70
2023-11-18T22:39:24.008Z,1.70
2023-11-18T22:41:26.963Z,4.43
2023-11-18T22:43:31.195Z,1.33
2023-11-18T22:45:34.103Z,1.77
2023-11-18T22:47:37.405Z,3.50
2023-11-18T22:49:41.708Z,1.97
2023-11-18T22:51:44.667Z,3.90
2023-11-18T22:53:47.585Z,1.40
2023-11-18T22:55:52.068Z,5.90
2023-11-18T22:57:54.186Z,2.10
2023-11-18T22:59:59.839Z,1.77
2023-11-18T23:02:04.337Z,2.17
2023-11-18T23:04:12.800Z,1.73
2023-11-18T23:06:20.873Z,1.70
2023-11-18T23:08:23.955Z,1.97
2023-11-18T23:10:26.232Z,3.73
2023-11-18T23:12:29.468Z,1.70
2023-11-18T23:14:32.389Z,1.50
2023-11-18T23:16:36.641Z,1.87
2023-11-18T23:18:41.692Z,3.47
2023-11-18T23:20:44.696Z,1.87
2023-11-18T23:22:48.490Z,5.30
2023-11-18T23:24:51.386Z,1.63
2023-11-18T23:26:56.776Z,5.30
2023-11-18T23:28:59.672Z,5.40
2023-11-18T23:31:03.865Z,1.70
2023-11-18T23:33:09.137Z,1.47
2023-11-18T23:35:12.524Z,2.20
2023-11-18T23:37:15.543Z,2.77
2023-11-18T23:39:18.794Z,1.70
2023-11-18T23:41:22.123Z,1.30
2023-11-18T23:43:25.074Z,1.70
2023-11-18T23:45:27.971Z,1.93
2023-11-18T23:47:29.874Z,1.53
2023-11-18T23:49:34.081Z,1.20
2023-11-18T23:51:36.970Z,1.60
2023-11-18T23:53:39.941Z,2.37
2023-11-18T23:55:42.863Z,1.47
2023-11-18T23:57:45.016Z,3.20
2023-11-18T23:59:48.026Z,3.80
